sensor_id;sensor_type;location;lat;lon;timestamp;pressure;altitude;pressure_sealevel;temperature;humidity
76594;BME280;65482;50.240;14.302;2023-07-02T00:00:27;98594.03;;;20.20;nan
76594;BME280;65482;50.240;14.302;2023-07-02T00:03:19;98591.59;;;20.19;nan
76594;BME280;65482;50.240;14.302;2023-07-02T00:05:48;98583.97;;;20.11;nan
76594;BME280;65482;50.240;14.302;2023-07-02T00:08:22;98590.50;;;20.37;nan
76594;BME280;65482;50.240;14.302;2023-07-02T00:10:49;98596.38;;;20.34;nan
76594;BME280;65482;50.240;14.302;2023-07-02T00:13:16;98595.53;;;20.33;nan
76594;BME280;65482;50.240;14.302;2023-07-02T00:15:42;98590.13;;;20.28;nan
76594;BME280;65482;50.240;14.302;2023-07-02T00:18:16;98592.44;;;20.19;nan
76594;BME280;65482;50.240;14.302;2023-07-02T00:20:44;98587.13;;;20.24;nan
76594;BME280;65482;50.240;14.302;2023-07-02T00:23:11;98592.16;;;20.21;nan
76594;BME280;65482;50.240;14.302;2023-07-02T00:25:39;98596.47;;;20.22;nan
76594;BME280;65482;50.240;14.302;2023-07-02T00:28:08;98593.78;;;20.22;nan
76594;BME280;65482;50.240;14.302;2023-07-02T00:30:35;98589.16;;;20.17;nan
76594;BME280;65482;50.240;14.302;2023-07-02T00:33:04;98592.09;;;20.16;nan
76594;BME280;65482;50.240;14.302;2023-07-02T00:35:30;98586.66;;;20.11;nan
76594;BME280;65482;50.240;14.302;2023-07-02T00:37:57;98596.47;;;20.05;nan
76594;BME280;65482;50.240;14.302;2023-07-02T00:40:23;98585.44;;;20.01;nan
76594;BME280;65482;50.240;14.302;2023-07-02T00:42:51;98588.72;;;20.03;nan
76594;BME280;65482;50.240;14.302;2023-07-02T00:45:18;98591.19;;;19.93;nan
76594;BME280;65482;50.240;14.302;2023-07-02T00:47:45;98591.16;;;19.59;nan
76594;BME280;65482;50.240;14.302;2023-07-02T00:50:12;98586.25;;;19.85;nan
76594;BME280;65482;50.240;14.302;2023-07-02T00:52:40;98588.94;;;19.85;nan
76594;BME280;65482;50.240;14.302;2023-07-02T00:55:09;98600.22;;;19.87;nan
76594;BME280;65482;50.240;14.302;2023-07-02T00:57:38;98594.53;;;19.83;nan
76594;BME280;65482;50.240;14.302;2023-07-02T01:00:07;98593.97;;;19.81;nan
76594;BME280;65482;50.240;14.302;2023-07-02T01:02:36;98584.78;;;19.77;nan
76594;BME280;65482;50.240;14.302;2023-07-02T01:05:05;98582.63;;;19.74;nan
76594;BME280;65482;50.240;14.302;2023-07-02T01:07:32;98591.97;;;19.43;nan
76594;BME280;65482;50.240;14.302;2023-07-02T01:09:58;98587.41;;;19.43;nan
76594;BME280;65482;50.240;14.302;2023-07-02T01:12:36;98589.78;;;19.57;nan
76594;BME280;65482;50.240;14.302;2023-07-02T01:15:05;98589.78;;;19.57;nan
76594;BME280;65482;50.240;14.302;2023-07-02T01:17:33;98579.25;;;19.50;nan
76594;BME280;65482;50.240;14.302;2023-07-02T01:20:09;98579.00;;;19.52;nan
76594;BME280;65482;50.240;14.302;2023-07-02T01:22:48;98583.69;;;19.44;nan
76594;BME280;65482;50.240;14.302;2023-07-02T01:25:17;98582.63;;;19.45;nan
76594;BME280;65482;50.240;14.302;2023-07-02T01:27:47;98585.81;;;19.42;nan
76594;BME280;65482;50.240;14.302;2023-07-02T01:30:15;98585.06;;;19.47;nan
76594;BME280;65482;50.240;14.302;2023-07-02T01:32:45;98583.69;;;19.44;nan
76594;BME280;65482;50.240;14.302;2023-07-02T01:35:13;98590.59;;;19.40;nan
76594;BME280;65482;50.240;14.302;2023-07-02T01:37:43;98591.03;;;19.37;nan
76594;BME280;65482;50.240;14.302;2023-07-02T01:40:10;98592.91;;;19.37;nan
76594;BME280;65482;50.240;14.302;2023-07-02T01:42:40;98585.38;;;19.34;nan
76594;BME280;65482;50.240;14.302;2023-07-02T01:45:06;98585.13;;;19.35;nan
76594;BME280;65482;50.240;14.302;2023-07-02T01:47:36;98586.66;;;19.31;nan
76594;BME280;65482;50.240;14.302;2023-07-02T01:50:05;98595.50;;;19.32;nan
76594;BME280;65482;50.240;14.302;2023-07-02T01:52:35;98588.53;;;19.31;nan
76594;BME280;65482;50.240;14.302;2023-07-02T01:55:04;98593.97;;;19.36;nan
76594;BME280;65482;50.240;14.302;2023-07-02T01:57:33;98589.09;;;19.33;nan
76594;BME280;65482;50.240;14.302;2023-07-02T01:59:59;98589.34;;;19.31;nan
76594;BME280;65482;50.240;14.302;2023-07-02T02:02:33;98597.13;;;19.33;nan
76594;BME280;65482;50.240;14.302;2023-07-02T02:05:00;98587.00;;;19.35;nan
76594;BME280;65482;50.240;14.302;2023-07-02T02:07:27;98584.31;;;19.35;nan
76594;BME280;65482;50.240;14.302;2023-07-02T02:09:54;98581.31;;;19.31;nan
76594;BME280;65482;50.240;14.302;2023-07-02T02:12:22;98578.97;;;19.35;nan
76594;BME280;65482;50.240;14.302;2023-07-02T02:14:49;98592.00;;;19.31;nan
76594;BME280;65482;50.240;14.302;2023-07-02T02:17:20;98581.47;;;19.24;nan
76594;BME280;65482;50.240;14.302;2023-07-02T02:19:49;98591.09;;;19.25;nan
76594;BME280;65482;50.240;14.302;2023-07-02T02:22:17;98599.47;;;19.29;nan
76594;BME280;65482;50.240;14.302;2023-07-02T02:24:43;98597.03;;;19.27;nan
76594;BME280;65482;50.240;14.302;2023-07-02T02:27:11;98589.84;;;19.28;nan
76594;BME280;65482;50.240;14.302;2023-07-02T02:29:37;98594.34;;;19.27;nan
76594;BME280;65482;50.240;14.302;2023-07-02T02:32:08;98590.28;;;19.25;nan
76594;BME280;65482;50.240;14.302;2023-07-02T02:34:34;98604.81;;;19.29;nan
76594;BME280;65482;50.240;14.302;2023-07-02T02:37:15;98595.06;;;19.23;nan
76594;BME280;65482;50.240;14.302;2023-07-02T02:39:40;98596.72;;;19.24;nan
76594;BME280;65482;50.240;14.302;2023-07-02T02:42:07;98605.91;;;19.16;nan
76594;BME280;65482;50.240;14.302;2023-07-02T02:44:32;98607.28;;;19.19;nan
76594;BME280;65482;50.240;14.302;2023-07-02T02:46:58;98600.56;;;19.16;nan
76594;BME280;65482;50.240;14.302;2023-07-02T02:49:23;98600.56;;;19.16;nan
76594;BME280;65482;50.240;14.302;2023-07-02T02:51:49;98600.81;;;19.15;nan
76594;BME280;65482;50.240;14.302;2023-07-02T02:54:14;98599.44;;;19.12;nan
76594;BME280;65482;50.240;14.302;2023-07-02T02:56:41;98603.72;;;19.13;nan
76594;BME280;65482;50.240;14.302;2023-07-02T02:59:07;98605.47;;;19.07;nan
76594;BME280;65482;50.240;14.302;2023-07-02T03:01:33;98603.72;;;19.13;nan
76594;BME280;65482;50.240;14.302;2023-07-02T03:03:59;98600.13;;;19.07;nan
76594;BME280;65482;50.240;14.302;2023-07-02T03:06:25;98610.97;;;19.01;nan
76594;BME280;65482;50.240;14.302;2023-07-02T03:08:50;98611.75;;;19.01;nan
76594;BME280;65482;50.240;14.302;2023-07-02T03:11:16;98613.88;;;18.99;nan
76594;BME280;65482;50.240;14.302;2023-07-02T03:13:41;98611.09;;;18.94;nan
76594;BME280;65482;50.240;14.302;2023-07-02T03:16:07;98617.34;;;19.00;nan
76594;BME280;65482;50.240;14.302;2023-07-02T03:18:33;98619.31;;;19.04;nan
76594;BME280;65482;50.240;14.302;2023-07-02T03:20:59;98617.69;;;19.03;nan
76594;BME280;65482;50.240;14.302;2023-07-02T03:23:24;98614.44;;;19.01;nan
76594;BME280;65482;50.240;14.302;2023-07-02T03:25:50;98625.94;;;19.02;nan
76594;BME280;65482;50.240;14.302;2023-07-02T03:28:16;98620.00;;;19.00;nan
76594;BME280;65482;50.240;14.302;2023-07-02T03:30:42;98621.06;;;18.99;nan
76594;BME280;65482;50.240;14.302;2023-07-02T03:33:09;98620.50;;;18.97;nan
76594;BME280;65482;50.240;14.302;2023-07-02T03:35:35;98621.44;;;18.91;nan
76594;BME280;65482;50.240;14.302;2023-07-02T03:38:02;98623.16;;;18.97;nan
76594;BME280;65482;50.240;14.302;2023-07-02T03:40:28;98628.88;;;19.00;nan
76594;BME280;65482;50.240;14.302;2023-07-02T03:42:53;98628.72;;;19.07;nan
76594;BME280;65482;50.240;14.302;2023-07-02T03:45:19;98628.81;;;19.12;nan
76594;BME280;65482;50.240;14.302;2023-07-02T03:47:44;98628.09;;;19.17;nan
76594;BME280;65482;50.240;14.302;2023-07-02T03:50:10;98632.38;;;19.18;nan
76594;BME280;65482;50.240;14.302;2023-07-02T03:52:36;98622.03;;;19.21;nan
76594;BME280;65482;50.240;14.302;2023-07-02T03:55:02;98637.03;;;19.22;nan
76594;BME280;65482;50.240;14.302;2023-07-02T03:57:28;98641.31;;;19.23;nan
76594;BME280;65482;50.240;14.302;2023-07-02T03:59:53;98641.81;;;19.20;nan
76594;BME280;65482;50.240;14.302;2023-07-02T04:02:19;98633.78;;;19.20;nan
76594;BME280;65482;50.240;14.302;2023-07-02T04:04:45;98643.09;;;19.18;nan
76594;BME280;65482;50.240;14.302;2023-07-02T04:07:10;98644.38;;;19.15;nan
76594;BME280;65482;50.240;14.302;2023-07-02T04:09:36;98649.25;;;19.18;nan
76594;BME280;65482;50.240;14.302;2023-07-02T04:12:02;98652.28;;;19.22;nan
76594;BME280;65482;50.240;14.302;2023-07-02T04:14:28;98646.09;;;19.21;nan
76594;BME280;65482;50.240;14.302;2023-07-02T04:16:53;98648.78;;;19.21;nan
76594;BME280;65482;50.240;14.302;2023-07-02T04:19:19;98647.72;;;19.22;nan
76594;BME280;65482;50.240;14.302;2023-07-02T04:21:45;98657.38;;;19.23;nan
76594;BME280;65482;50.240;14.302;2023-07-02T04:24:10;98657.47;;;19.28;nan
76594;BME280;65482;50.240;14.302;2023-07-02T04:26:36;98653.50;;;19.31;nan
76594;BME280;65482;50.240;14.302;2023-07-02T04:29:02;98651.91;;;19.30;nan
76594;BME280;65482;50.240;14.302;2023-07-02T04:31:28;98650.38;;;19.34;nan
76594;BME280;65482;50.240;14.302;2023-07-02T04:33:54;98662.31;;;19.32;nan
76594;BME280;65482;50.240;14.302;2023-07-02T04:36:19;98660.56;;;19.37;nan
76594;BME280;65482;50.240;14.302;2023-07-02T04:38:45;98666.03;;;19.42;nan
76594;BME280;65482;50.240;14.302;2023-07-02T04:41:10;98667.63;;;19.43;nan
76594;BME280;65482;50.240;14.302;2023-07-02T04:43:36;98664.72;;;19.45;nan
76594;BME280;65482;50.240;14.302;2023-07-02T04:46:02;98667.50;;;19.50;nan
76594;BME280;65482;50.240;14.302;2023-07-02T04:48:28;98668.25;;;19.62;nan
76594;BME280;65482;50.240;14.302;2023-07-02T04:50:54;98664.38;;;19.82;nan
76594;BME280;65482;50.240;14.302;2023-07-02T04:53:20;98668.97;;;19.86;nan
76594;BME280;65482;50.240;14.302;2023-07-02T04:55:45;98668.81;;;19.93;nan
76594;BME280;65482;50.240;14.302;2023-07-02T04:58:11;98666.16;;;20.10;nan
76594;BME280;65482;50.240;14.302;2023-07-02T05:00:36;98664.63;;;20.14;nan
76594;BME280;65482;50.240;14.302;2023-07-02T05:03:03;98673.88;;;20.23;nan
76594;BME280;65482;50.240;14.302;2023-07-02T05:05:29;98670.28;;;20.35;nan
76594;BME280;65482;50.240;14.302;2023-07-02T05:07:55;98661.25;;;20.41;nan
76594;BME280;65482;50.240;14.302;2023-07-02T05:10:20;98673.19;;;20.50;nan
76594;BME280;65482;50.240;14.302;2023-07-02T05:12:46;98671.84;;;20.48;nan
76594;BME280;65482;50.240;14.302;2023-07-02T05:15:12;98666.84;;;20.56;nan
76594;BME280;65482;50.240;14.302;2023-07-02T05:17:37;98668.41;;;20.52;nan
76594;BME280;65482;50.240;14.302;2023-07-02T05:20:04;98672.16;;;20.68;nan
76594;BME280;65482;50.240;14.302;2023-07-02T05:22:30;98675.59;;;20.85;nan
76594;BME280;65482;50.240;14.302;2023-07-02T05:24:56;98670.16;;;21.02;nan
76594;BME280;65482;50.240;14.302;2023-07-02T05:27:22;98672.00;;;21.19;nan
76594;BME280;65482;50.240;14.302;2023-07-02T05:29:47;98673.84;;;21.18;nan
76594;BME280;65482;50.240;14.302;2023-07-02T05:32:13;98674.25;;;21.05;nan
76594;BME280;65482;50.240;14.302;2023-07-02T05:34:39;98681.41;;;20.99;nan
76594;BME280;65482;50.240;14.302;2023-07-02T05:37:05;98670.69;;;20.99;nan
76594;BME280;65482;50.240;14.302;2023-07-02T05:39:33;98674.53;;;21.09;nan
76594;BME280;65482;50.240;14.302;2023-07-02T05:41:59;98678.22;;;21.02;nan
76594;BME280;65482;50.240;14.302;2023-07-02T05:44:25;98676.84;;;21.22;nan
76594;BME280;65482;50.240;14.302;2023-07-02T05:46:51;98671.69;;;21.42;nan
76594;BME280;65482;50.240;14.302;2023-07-02T05:49:16;98676.47;;;21.57;nan
76594;BME280;65482;50.240;14.302;2023-07-02T05:51:42;98675.31;;;21.75;nan
76594;BME280;65482;50.240;14.302;2023-07-02T05:54:07;98678.94;;;21.64;nan
76594;BME280;65482;50.240;14.302;2023-07-02T05:56:33;98689.59;;;21.81;nan
76594;BME280;65482;50.240;14.302;2023-07-02T05:59:00;98679.53;;;21.98;nan
76594;BME280;65482;50.240;14.302;2023-07-02T06:01:26;98676.72;;;22.15;nan
76594;BME280;65482;50.240;14.302;2023-07-02T06:03:52;98673.66;;;22.29;nan
76594;BME280;65482;50.240;14.302;2023-07-02T06:06:18;98674.44;;;22.29;nan
76594;BME280;65482;50.240;14.302;2023-07-02T06:08:43;98689.34;;;22.47;nan
76594;BME280;65482;50.240;14.302;2023-07-02T06:11:11;98686.56;;;22.74;nan
76594;BME280;65482;50.240;14.302;2023-07-02T06:13:37;98693.13;;;22.99;nan
76594;BME280;65482;50.240;14.302;2023-07-02T06:16:03;98689.25;;;23.27;nan
76594;BME280;65482;50.240;14.302;2023-07-02T06:18:29;98684.72;;;23.43;nan
76594;BME280;65482;50.240;14.302;2023-07-02T06:20:55;98696.56;;;23.42;nan
76594;BME280;65482;50.240;14.302;2023-07-02T06:23:21;98696.53;;;23.27;nan
76594;BME280;65482;50.240;14.302;2023-07-02T06:25:49;98706.66;;;23.09;nan
76594;BME280;65482;50.240;14.302;2023-07-02T06:28:18;98704.84;;;22.77;nan
76594;BME280;65482;50.240;14.302;2023-07-02T06:30:45;98705.03;;;22.60;nan
76594;BME280;65482;50.240;14.302;2023-07-02T06:33:10;98701.94;;;22.41;nan
76594;BME280;65482;50.240;14.302;2023-07-02T06:35:36;98712.59;;;22.31;nan
76594;BME280;65482;50.240;14.302;2023-07-02T06:38:01;98721.06;;;22.18;nan
76594;BME280;65482;50.240;14.302;2023-07-02T06:40:27;98712.19;;;22.17;nan
76594;BME280;65482;50.240;14.302;2023-07-02T06:42:53;98714.09;;;22.22;nan
76594;BME280;65482;50.240;14.302;2023-07-02T06:45:18;98712.84;;;22.30;nan
76594;BME280;65482;50.240;14.302;2023-07-02T06:47:44;98716.88;;;22.27;nan
76594;BME280;65482;50.240;14.302;2023-07-02T06:50:10;98716.94;;;22.32;nan
76594;BME280;65482;50.240;14.302;2023-07-02T06:52:36;98716.72;;;22.44;nan
76594;BME280;65482;50.240;14.302;2023-07-02T06:55:03;98721.34;;;22.54;nan
76594;BME280;65482;50.240;14.302;2023-07-02T06:57:29;98713.28;;;22.54;nan
76594;BME280;65482;50.240;14.302;2023-07-02T06:59:58;98720.13;;;22.67;nan
76594;BME280;65482;50.240;14.302;2023-07-02T07:02:24;98725.81;;;22.75;nan
76594;BME280;65482;50.240;14.302;2023-07-02T07:04:50;98730.03;;;23.03;nan
76594;BME280;65482;50.240;14.302;2023-07-02T07:07:16;98727.97;;;23.21;nan
76594;BME280;65482;50.240;14.302;2023-07-02T07:09:42;98732.06;;;23.39;nan
76594;BME280;65482;50.240;14.302;2023-07-02T07:12:08;98727.78;;;23.38;nan
76594;BME280;65482;50.240;14.302;2023-07-02T07:14:34;98739.34;;;23.38;nan
76594;BME280;65482;50.240;14.302;2023-07-02T07:17:00;98742.31;;;23.42;nan
76594;BME280;65482;50.240;14.302;2023-07-02T07:19:25;98742.81;;;24.28;nan
76594;BME280;65482;50.240;14.302;2023-07-02T07:21:51;98745.97;;;25.77;nan
76594;BME280;65482;50.240;14.302;2023-07-02T07:24:17;98749.66;;;25.42;nan
76594;BME280;65482;50.240;14.302;2023-07-02T07:26:42;98744.66;;;24.99;nan
76594;BME280;65482;50.240;14.302;2023-07-02T07:29:08;98747.66;;;24.72;nan
76594;BME280;65482;50.240;14.302;2023-07-02T07:31:34;98739.31;;;24.58;nan
76594;BME280;65482;50.240;14.302;2023-07-02T07:34:00;98740.41;;;24.52;nan
76594;BME280;65482;50.240;14.302;2023-07-02T07:36:25;98750.22;;;27.15;nan
76594;BME280;65482;50.240;14.302;2023-07-02T07:38:51;98762.75;;;29.43;nan
76594;BME280;65482;50.240;14.302;2023-07-02T07:41:17;98761.50;;;28.93;nan
76594;BME280;65482;50.240;14.302;2023-07-02T07:43:43;98782.81;;;27.34;nan
76594;BME280;65482;50.240;14.302;2023-07-02T07:46:09;98786.72;;;28.80;nan
76594;BME280;65482;50.240;14.302;2023-07-02T07:48:35;98788.16;;;27.40;nan
76594;BME280;65482;50.240;14.302;2023-07-02T07:51:01;98800.50;;;30.08;nan
76594;BME280;65482;50.240;14.302;2023-07-02T07:53:28;98809.84;;;32.04;nan
76594;BME280;65482;50.240;14.302;2023-07-02T07:55:54;98809.22;;;33.83;nan
76594;BME280;65482;50.240;14.302;2023-07-02T07:58:20;98806.28;;;34.97;nan
76594;BME280;65482;50.240;14.302;2023-07-02T08:00:46;98807.03;;;36.21;nan
76594;BME280;65482;50.240;14.302;2023-07-02T08:03:11;98803.03;;;37.07;nan
76594;BME280;65482;50.240;14.302;2023-07-02T08:05:37;98794.13;;;37.77;nan
76594;BME280;65482;50.240;14.302;2023-07-02T08:08:03;98802.00;;;38.14;nan
76594;BME280;65482;50.240;14.302;2023-07-02T08:10:30;98805.09;;;38.51;nan
76594;BME280;65482;50.240;14.302;2023-07-02T08:13:02;98808.97;;;39.12;nan
76594;BME280;65482;50.240;14.302;2023-07-02T08:15:30;98812.34;;;39.78;nan
76594;BME280;65482;50.240;14.302;2023-07-02T08:17:56;98810.22;;;39.95;nan
76594;BME280;65482;50.240;14.302;2023-07-02T08:20:23;98807.03;;;40.57;nan
76594;BME280;65482;50.240;14.302;2023-07-02T08:22:49;98806.31;;;41.05;nan
76594;BME280;65482;50.240;14.302;2023-07-02T08:25:17;98814.44;;;41.31;nan
76594;BME280;65482;50.240;14.302;2023-07-02T08:27:47;98801.91;;;41.45;nan
76594;BME280;65482;50.240;14.302;2023-07-02T08:30:13;98793.44;;;41.86;nan
76594;BME280;65482;50.240;14.302;2023-07-02T08:32:39;98789.84;;;41.75;nan
76594;BME280;65482;50.240;14.302;2023-07-02T08:35:05;98798.59;;;41.87;nan
76594;BME280;65482;50.240;14.302;2023-07-02T08:37:31;98794.75;;;41.40;nan
76594;BME280;65482;50.240;14.302;2023-07-02T08:39:57;98803.81;;;40.92;nan
76594;BME280;65482;50.240;14.302;2023-07-02T08:42:24;98794.72;;;40.88;nan
76594;BME280;65482;50.240;14.302;2023-07-02T08:44:55;98797.19;;;40.60;nan
76594;BME280;65482;50.240;14.302;2023-07-02T08:47:24;98801.78;;;40.14;nan
76594;BME280;65482;50.240;14.302;2023-07-02T08:49:50;98800.91;;;40.07;nan
76594;BME280;65482;50.240;14.302;2023-07-02T08:52:16;98800.28;;;40.54;nan
76594;BME280;65482;50.240;14.302;2023-07-02T08:54:41;98812.16;;;40.59;nan
76594;BME280;65482;50.240;14.302;2023-07-02T08:57:10;98803.53;;;40.64;nan
76594;BME280;65482;50.240;14.302;2023-07-02T08:59:36;98788.69;;;39.24;nan
76594;BME280;65482;50.240;14.302;2023-07-02T09:02:02;98788.75;;;39.28;nan
76594;BME280;65482;50.240;14.302;2023-07-02T09:04:29;98782.66;;;38.95;nan
76594;BME280;65482;50.240;14.302;2023-07-02T09:09:31;98777.41;;;38.64;nan
76594;BME280;65482;50.240;14.302;2023-07-02T09:11:57;98771.66;;;37.08;nan
76594;BME280;65482;50.240;14.302;2023-07-02T09:14:30;98771.06;;;37.14;nan
76594;BME280;65482;50.240;14.302;2023-07-02T09:17:07;98772.66;;;36.99;nan
76594;BME280;65482;50.240;14.302;2023-07-02T09:19:49;98778.69;;;36.45;nan
76594;BME280;65482;50.240;14.302;2023-07-02T09:22:16;98772.03;;;36.46;nan
76594;BME280;65482;50.240;14.302;2023-07-02T09:24:53;98775.59;;;35.04;nan
76594;BME280;65482;50.240;14.302;2023-07-02T09:27:38;98765.06;;;33.73;nan
76594;BME280;65482;50.240;14.302;2023-07-02T09:30:09;98758.06;;;33.24;nan
76594;BME280;65482;50.240;14.302;2023-07-02T09:32:36;98758.63;;;32.36;nan
76594;BME280;65482;50.240;14.302;2023-07-02T09:35:01;98770.03;;;31.28;nan
76594;BME280;65482;50.240;14.302;2023-07-02T09:37:28;98764.31;;;30.98;nan
76594;BME280;65482;50.240;14.302;2023-07-02T09:39:54;98765.13;;;30.45;nan
76594;BME280;65482;50.240;14.302;2023-07-02T09:42:21;98764.88;;;30.55;nan
76594;BME280;65482;50.240;14.302;2023-07-02T09:44:48;98762.59;;;31.11;nan
76594;BME280;65482;50.240;14.302;2023-07-02T09:47:20;98755.22;;;31.69;nan
76594;BME280;65482;50.240;14.302;2023-07-02T09:50:07;98763.72;;;31.50;nan
76594;BME280;65482;50.240;14.302;2023-07-02T09:52:36;98757.16;;;31.68;nan
76594;BME280;65482;50.240;14.302;2023-07-02T09:55:02;98754.94;;;31.70;nan
76594;BME280;65482;50.240;14.302;2023-07-02T09:57:29;98756.53;;;31.80;nan
76594;BME280;65482;50.240;14.302;2023-07-02T09:59:58;98758.59;;;31.83;nan
76594;BME280;65482;50.240;14.302;2023-07-02T10:02:24;98760.38;;;31.97;nan
76594;BME280;65482;50.240;14.302;2023-07-02T10:04:50;98757.72;;;32.05;nan
76594;BME280;65482;50.240;14.302;2023-07-02T10:07:28;98754.63;;;31.89;nan
76594;BME280;65482;50.240;14.302;2023-07-02T10:09:54;98753.34;;;31.96;nan
76594;BME280;65482;50.240;14.302;2023-07-02T10:12:27;98757.41;;;31.41;nan
76594;BME280;65482;50.240;14.302;2023-07-02T10:14:57;98759.84;;;31.02;nan
76594;BME280;65482;50.240;14.302;2023-07-02T10:17:32;98753.00;;;30.51;nan
76594;BME280;65482;50.240;14.302;2023-07-02T10:19:59;98750.00;;;29.93;nan
76594;BME280;65482;50.240;14.302;2023-07-02T10:22:26;98761.53;;;29.63;nan
76594;BME280;65482;50.240;14.302;2023-07-02T10:24:58;98754.97;;;29.50;nan
76594;BME280;65482;50.240;14.302;2023-07-02T10:27:41;98757.22;;;29.34;nan
76594;BME280;65482;50.240;14.302;2023-07-02T10:30:09;98756.88;;;29.08;nan
76594;BME280;65482;50.240;14.302;2023-07-02T10:32:36;98747.13;;;28.79;nan
76594;BME280;65482;50.240;14.302;2023-07-02T10:35:21;98758.31;;;28.59;nan
76594;BME280;65482;50.240;14.302;2023-07-02T10:37:50;98763.50;;;28.41;nan
76594;BME280;65482;50.240;14.302;2023-07-02T10:40:16;98772.78;;;28.35;nan
76594;BME280;65482;50.240;14.302;2023-07-02T10:42:52;98764.97;;;28.14;nan
76594;BME280;65482;50.240;14.302;2023-07-02T10:45:19;98763.44;;;28.08;nan
76594;BME280;65482;50.240;14.302;2023-07-02T10:47:46;98764.84;;;28.06;nan
76594;BME280;65482;50.240;14.302;2023-07-02T10:50:18;98758.56;;;27.67;nan
76594;BME280;65482;50.240;14.302;2023-07-02T10:52:46;98761.34;;;27.62;nan
76594;BME280;65482;50.240;14.302;2023-07-02T10:55:19;98762.97;;;27.15;nan
76594;BME280;65482;50.240;14.302;2023-07-02T10:57:47;98769.56;;;27.04;nan
76594;BME280;65482;50.240;14.302;2023-07-02T11:00:14;98770.84;;;26.87;nan
76594;BME280;65482;50.240;14.302;2023-07-02T11:02:40;98762.59;;;26.73;nan
76594;BME280;65482;50.240;14.302;2023-07-02T11:05:07;98761.75;;;26.78;nan
76594;BME280;65482;50.240;14.302;2023-07-02T11:07:41;98765.28;;;27.03;nan
76594;BME280;65482;50.240;14.302;2023-07-02T11:10:08;98764.00;;;27.19;nan
76594;BME280;65482;50.240;14.302;2023-07-02T11:12:35;98762.88;;;27.25;nan
76594;BME280;65482;50.240;14.302;2023-07-02T11:15:13;98762.94;;;27.20;nan
76594;BME280;65482;50.240;14.302;2023-07-02T11:17:39;98759.34;;;27.01;nan
76594;BME280;65482;50.240;14.302;2023-07-02T11:20:10;98766.66;;;27.00;nan
76594;BME280;65482;50.240;14.302;2023-07-02T11:22:38;98772.22;;;26.85;nan
76594;BME280;65482;50.240;14.302;2023-07-02T11:27:40;98774.59;;;26.91;nan
76594;BME280;65482;50.240;14.302;2023-07-02T11:30:07;98776.34;;;26.77;nan
76594;BME280;65482;50.240;14.302;2023-07-02T11:32:49;98775.31;;;26.73;nan
76594;BME280;65482;50.240;14.302;2023-07-02T11:35:17;98770.69;;;26.73;nan
76594;BME280;65482;50.240;14.302;2023-07-02T11:37:43;98780.22;;;26.66;nan
76594;BME280;65482;50.240;14.302;2023-07-02T11:40:09;98782.28;;;26.79;nan
76594;BME280;65482;50.240;14.302;2023-07-02T11:42:35;98780.72;;;26.73;nan
76594;BME280;65482;50.240;14.302;2023-07-02T11:45:04;98782.72;;;26.62;nan
76594;BME280;65482;50.240;14.302;2023-07-02T11:47:30;98780.75;;;26.68;nan
76594;BME280;65482;50.240;14.302;2023-07-02T11:49:56;98774.38;;;26.58;nan
76594;BME280;65482;50.240;14.302;2023-07-02T11:52:21;98782.19;;;26.60;nan
76594;BME280;65482;50.240;14.302;2023-07-02T11:54:48;98773.03;;;26.51;nan
76594;BME280;65482;50.240;14.302;2023-07-02T11:57:14;98782.47;;;26.58;nan
76594;BME280;65482;50.240;14.302;2023-07-02T11:59:41;98784.72;;;26.46;nan
76594;BME280;65482;50.240;14.302;2023-07-02T12:02:07;98770.44;;;26.35;nan
76594;BME280;65482;50.240;14.302;2023-07-02T12:04:33;98773.59;;;26.48;nan
76594;BME280;65482;50.240;14.302;2023-07-02T12:07:00;98763.78;;;26.57;nan
76594;BME280;65482;50.240;14.302;2023-07-02T12:09:30;98762.06;;;26.71;nan
76594;BME280;65482;50.240;14.302;2023-07-02T12:11:56;98772.59;;;26.73;nan
76594;BME280;65482;50.240;14.302;2023-07-02T12:14:21;98772.69;;;26.63;nan
76594;BME280;65482;50.240;14.302;2023-07-02T12:16:47;98760.13;;;26.43;nan
76594;BME280;65482;50.240;14.302;2023-07-02T12:19:12;98769.69;;;26.30;nan
76594;BME280;65482;50.240;14.302;2023-07-02T12:21:39;98760.97;;;26.38;nan
76594;BME280;65482;50.240;14.302;2023-07-02T12:24:04;98751.59;;;26.30;nan
76594;BME280;65482;50.240;14.302;2023-07-02T12:26:35;98748.56;;;26.37;nan
76594;BME280;65482;50.240;14.302;2023-07-02T12:29:01;98748.66;;;26.22;nan
76594;BME280;65482;50.240;14.302;2023-07-02T12:31:26;98750.13;;;26.43;nan
76594;BME280;65482;50.240;14.302;2023-07-02T12:33:52;98747.31;;;26.53;nan
76594;BME280;65482;50.240;14.302;2023-07-02T12:36:18;98757.03;;;26.59;nan
76594;BME280;65482;50.240;14.302;2023-07-02T12:38:43;98754.19;;;26.75;nan
76594;BME280;65482;50.240;14.302;2023-07-02T12:41:09;98758.47;;;26.81;nan
76594;BME280;65482;50.240;14.302;2023-07-02T12:43:34;98759.56;;;26.80;nan
76594;BME280;65482;50.240;14.302;2023-07-02T12:46:00;98754.69;;;26.82;nan
76594;BME280;65482;50.240;14.302;2023-07-02T12:48:26;98749.56;;;26.75;nan
76594;BME280;65482;50.240;14.302;2023-07-02T12:50:59;98746.56;;;26.82;nan
76594;BME280;65482;50.240;14.302;2023-07-02T12:53:26;98755.09;;;26.94;nan
76594;BME280;65482;50.240;14.302;2023-07-02T12:55:53;98753.81;;;26.87;nan
76594;BME280;65482;50.240;14.302;2023-07-02T12:58:19;98766.84;;;27.09;nan
76594;BME280;65482;50.240;14.302;2023-07-02T13:00:46;98755.72;;;27.10;nan
76594;BME280;65482;50.240;14.302;2023-07-02T13:03:13;98759.22;;;27.11;nan
76594;BME280;65482;50.240;14.302;2023-07-02T13:05:40;98756.75;;;27.14;nan
76594;BME280;65482;50.240;14.302;2023-07-02T13:08:06;98759.50;;;27.09;nan
76594;BME280;65482;50.240;14.302;2023-07-02T13:10:33;98752.78;;;27.07;nan
76594;BME280;65482;50.240;14.302;2023-07-02T13:12:59;98760.66;;;27.03;nan
76594;BME280;65482;50.240;14.302;2023-07-02T13:15:25;98764.13;;;27.09;nan